Time;durP1;ratioP1;P1;durP2;ratioP2;P2;SDS_P1;SDS_P2;PMS_P1;PMS_P2;Temp;Humidity;BMP_temperature;BMP_pressure;BME280_temperature;BME280_humidity;BME280_pressure;Samples;Min_cycle;Max_cycle;Signal;HPM_P1;HPM_P2
2021/12/09 00:03:54;;;;;;;76.53;20.50;;;;;1.90;94719.00;;;;8298991;28;20239;-77
2021/12/09 00:07:57;;;;;;;77.17;20.63;;;;;1.90;94719.00;;;;8298311;28;20224;-76
2021/12/09 00:12:34;;;;;;;64.87;20.80;;;;;1.90;94728.00;;;;8299031;28;20249;-77
2021/12/09 00:16:37;;;;;;;76.63;19.97;;;;;2.00;94734.00;;;;8298488;28;20234;-77
2021/12/09 00:21:13;;;;;;;85.17;21.13;;;;;2.00;94738.00;;;;8296288;28;20233;-77
2021/12/09 00:25:17;;;;;;;66.33;18.77;;;;;2.10;94751.00;;;;8297506;28;20241;-76
2021/12/09 00:29:20;;;;;;;70.73;19.33;;;;;2.10;94743.00;;;;8298361;28;20265;-76
2021/12/09 00:33:23;;;;;;;72.17;21.23;;;;;2.00;94744.00;;;;8297803;28;20238;-77
2021/12/09 00:37:34;;;;;;;76.47;19.10;;;;;2.00;94743.00;;;;8298005;28;20520;-76
2021/12/09 00:42:02;;;;;;;81.60;19.33;;;;;2.00;94756.00;;;;8298639;28;20313;-77
2021/12/09 00:46:06;;;;;;;75.37;21.10;;;;;2.00;94768.00;;;;8297385;28;20214;-76
2021/12/09 00:50:11;;;;;;;71.93;20.87;;;;;2.00;94772.00;;;;8297429;28;20235;-76
2021/12/09 00:54:15;;;;;;;72.73;18.97;;;;;2.10;94803.00;;;;8297968;28;20218;-76
2021/12/09 00:58:18;;;;;;;80.10;20.87;;;;;2.10;94795.00;;;;8297630;28;20235;-77
2021/12/09 01:02:55;;;;;;;76.23;21.13;;;;;2.10;94815.00;;;;8297051;28;20608;-78
2021/12/09 01:06:59;;;;;;;72.73;20.67;;;;;2.10;94812.00;;;;8296581;28;20655;-78
2021/12/09 01:11:35;;;;;;;80.40;19.83;;;;;2.00;94793.00;;;;8296099;28;20224;-77
2021/12/09 01:15:38;;;;;;;87.93;23.00;;;;;2.00;94792.00;;;;8297364;28;20583;-77
2021/12/09 01:20:13;;;;;;;85.70;20.43;;;;;1.90;94782.00;;;;8296312;28;20239;-77
2021/12/09 01:24:17;;;;;;;70.83;18.77;;;;;1.90;94788.00;;;;8296766;28;20559;-77
2021/12/09 01:28:26;;;;;;;76.37;20.97;;;;;1.80;94803.00;;;;8296151;28;20218;-77
2021/12/09 01:32:56;;;;;;;94.87;23.37;;;;;1.90;94803.00;;;;8296493;28;20603;-76
2021/12/09 01:37:00;;;;;;;100.03;22.70;;;;;1.90;94793.00;;;;8295974;28;20213;-76
2021/12/09 01:41:03;;;;;;;88.73;21.60;;;;;1.90;94810.00;;;;8296045;28;20226;-76
2021/12/09 01:45:42;;;;;;;98.53;24.63;;;;;1.90;94816.00;;;;8296256;28;20253;-76
2021/12/09 01:49:45;;;;;;;77.43;20.60;;;;;1.90;94800.00;;;;8295929;28;20753;-76
2021/12/09 01:54:24;;;;;;;83.60;21.30;;;;;1.80;94806.00;;;;8296034;28;20264;-76
2021/12/09 01:58:27;;;;;;;87.40;22.70;;;;;1.90;94832.00;;;;8296061;28;20276;-76
2021/12/09 02:03:06;;;;;;;95.00;23.10;;;;;1.90;94824.00;;;;8295688;28;20262;-76
2021/12/09 02:07:10;;;;;;;81.13;21.97;;;;;1.90;94811.00;;;;8295277;28;20221;-76
2021/12/09 02:11:47;;;;;;;82.80;21.00;;;;;1.80;94805.00;;;;8295718;28;20539;-75
2021/12/09 02:15:52;;;;;;;60.37;18.40;;;;;1.80;94815.00;;;;8294468;28;20231;-76
2021/12/09 02:20:00;;;;;;;102.77;24.10;;;;;1.80;94802.00;;;;8295345;28;21228;-77
2021/12/09 02:24:35;;;;;;;90.50;21.10;;;;;1.80;94802.00;;;;8295458;28;20222;-76
2021/12/09 02:28:38;;;;;;;89.83;23.37;;;;;1.70;94806.00;;;;8296216;28;20247;-76
2021/12/09 02:32:45;;;;;;;92.70;22.27;;;;;1.70;94811.00;;;;8294624;28;20252;-74
2021/12/09 02:36:51;;;;;;;82.23;20.63;;;;;1.70;94810.00;;;;8295461;28;20599;-74
2021/12/09 02:40:56;;;;;;;100.97;23.90;;;;;1.70;94812.00;;;;8299078;28;20225;-73
2021/12/09 02:45:00;;;;;;;103.30;23.70;;;;;1.70;94818.00;;;;8300962;28;20234;-74
2021/12/09 02:49:04;;;;;;;100.47;24.13;;;;;1.70;94829.00;;;;8301349;28;20253;-76
2021/12/09 02:53:07;;;;;;;88.77;22.47;;;;;1.70;94828.00;;;;8301048;28;20238;-77
2021/12/09 02:57:46;;;;;;;106.33;25.70;;;;;1.70;94826.00;;;;8301737;28;20225;-77
2021/12/09 03:01:57;;;;;;;105.03;23.67;;;;;1.80;94817.00;;;;8405375;22;20236;-73
2021/12/09 03:06:02;;;;;;;102.97;24.27;;;;;1.90;94821.00;;;;8389871;28;20311;-79
2021/12/09 03:10:17;;;;;;;103.20;23.77;;;;;2.00;94827.00;;;;8419328;28;20242;-75
2021/12/09 03:14:23;;;;;;;123.93;25.03;;;;;2.10;94845.00;;;;8421651;28;20240;-75
2021/12/09 03:18:26;;;;;;;104.53;23.23;;;;;2.10;94832.00;;;;8420219;28;20668;-76
2021/12/09 03:22:29;;;;;;;107.20;24.90;;;;;2.10;94818.00;;;;8420981;28;20256;-76
2021/12/09 03:26:35;;;;;;;97.00;23.60;;;;;2.20;94817.00;;;;8420136;28;20654;-76
2021/12/09 03:30:41;;;;;;;92.13;22.83;;;;;2.20;94813.00;;;;8416141;28;20238;-77
2021/12/09 03:34:44;;;;;;;97.03;22.57;;;;;2.20;94806.00;;;;8419604;28;20631;-78
2021/12/09 03:38:48;;;;;;;89.93;22.93;;;;;2.20;94810.00;;;;8396806;28;20224;-81
2021/12/09 03:42:51;;;;;;;98.73;23.70;;;;;2.30;94823.00;;;;8412951;28;20244;-77
2021/12/09 03:46:59;;;;;;;108.43;24.40;;;;;2.30;94826.00;;;;8420062;28;20647;-77
2021/12/09 03:51:02;;;;;;;88.60;22.37;;;;;2.30;94824.00;;;;8418359;28;20237;-79
2021/12/09 03:55:07;;;;;;;90.17;23.73;;;;;2.40;94827.00;;;;8419197;28;20254;-77
2021/12/09 03:59:12;;;;;;;90.03;23.43;;;;;2.40;94839.00;;;;8418923;28;20223;-79
2021/12/09 04:03:18;;;;;;;87.13;22.53;;;;;2.40;94846.00;;;;8405655;28;20248;-77
2021/12/09 04:07:21;;;;;;;94.33;22.10;;;;;2.40;94844.00;;;;8398164;28;20229;-78
2021/12/09 04:11:24;;;;;;;77.20;21.13;;;;;2.40;94862.00;;;;8380538;28;20256;-76
2021/12/09 04:15:28;;;;;;;103.60;22.10;;;;;2.40;94862.00;;;;8385792;28;20256;-78
2021/12/09 04:19:32;;;;;;;82.53;21.07;;;;;2.40;94865.00;;;;8383558;28;20222;-77
2021/12/09 04:23:36;;;;;;;83.10;21.20;;;;;2.40;94876.00;;;;8384440;28;20249;-78
2021/12/09 04:27:39;;;;;;;87.57;22.37;;;;;2.40;94878.00;;;;8384817;28;20252;-77
2021/12/09 04:31:47;;;;;;;86.10;22.07;;;;;2.40;94879.00;;;;8384365;28;20715;-78
2021/12/09 04:35:52;;;;;;;89.63;22.20;;;;;2.40;94883.00;;;;8383876;28;20247;-77
2021/12/09 04:39:55;;;;;;;83.00;22.30;;;;;2.40;94878.00;;;;8384070;28;22158;-76
2021/12/09 04:43:58;;;;;;;76.13;22.07;;;;;2.40;94862.00;;;;8384630;28;20715;-77
2021/12/09 04:48:04;;;;;;;90.73;21.47;;;;;2.40;94867.00;;;;8383641;28;20303;-78
2021/12/09 04:52:09;;;;;;;84.23;22.10;;;;;2.30;94860.00;;;;8382598;28;20271;-75
2021/12/09 04:56:12;;;;;;;80.50;21.23;;;;;2.30;94869.00;;;;8391333;28;20307;-79
2021/12/09 05:00:19;;;;;;;83.23;21.90;;;;;2.30;94875.00;;;;8416866;28;20257;-76
2021/12/09 05:04:22;;;;;;;80.53;20.73;;;;;2.40;94876.00;;;;8383146;28;20318;-77
2021/12/09 05:08:31;;;;;;;70.73;21.17;;;;;2.40;94881.00;;;;8373110;28;20261;-82
2021/12/09 05:12:34;;;;;;;86.47;21.37;;;;;2.50;94876.00;;;;8378274;28;20240;-77
2021/12/09 05:16:44;;;;;;;76.00;22.57;;;;;2.40;94884.00;;;;8380229;28;20233;-76
2021/12/09 05:20:48;;;;;;;80.70;20.63;;;;;2.50;94883.00;;;;8382634;28;20238;-78
2021/12/09 05:24:54;;;;;;;70.00;21.67;;;;;2.40;94883.00;;;;8382152;28;20257;-79
2021/12/09 05:28:57;;;;;;;85.63;21.30;;;;;2.40;94879.00;;;;8391083;28;20249;-77
2021/12/09 05:33:01;;;;;;;77.77;22.80;;;;;2.40;94877.00;;;;8366383;28;20319;-77
2021/12/09 05:37:05;;;;;;;85.57;23.03;;;;;2.40;94858.00;;;;8374555;28;20867;-77
2021/12/09 05:41:11;;;;;;;88.47;22.73;;;;;2.40;94859.00;;;;8376602;28;20366;-77
2021/12/09 05:45:14;;;;;;;83.90;22.30;;;;;2.40;94864.00;;;;8374965;28;20274;-76
2021/12/09 05:49:19;;;;;;;81.47;22.60;;;;;2.40;94886.00;;;;8356914;28;20305;-71
2021/12/09 05:53:22;;;;;;;86.07;22.30;;;;;2.40;94903.00;;;;8367093;28;20253;-71
2021/12/09 05:57:27;;;;;;;95.87;22.10;;;;;2.40;94903.00;;;;8372224;28;20320;-71
2021/12/09 06:07:02;;;;;;;90.93;22.10;;;;;2.40;94935.00;;;;8367677;28;20227;-70
2021/12/09 06:11:36;;;;;;;91.07;21.27;;;;;2.30;94953.00;;;;8368181;28;20257;-70
2021/12/09 06:16:15;;;;;;;88.07;21.90;;;;;2.30;94967.00;;;;8368673;28;20223;-68
2021/12/09 06:20:49;;;;;;;97.80;23.67;;;;;2.40;94974.00;;;;8427498;28;20216;-70
2021/12/09 06:25:26;;;;;;;85.60;21.07;;;;;2.40;94990.00;;;;8427209;28;20243;-70
2021/12/09 06:29:59;;;;;;;85.63;21.03;;;;;2.50;94990.00;;;;8426482;28;20221;-70
2021/12/09 06:34:41;;;;;;;93.23;23.40;;;;;2.40;94993.00;;;;8426817;28;20212;-70
2021/12/09 06:39:07;;;;;;;95.27;21.70;;;;;2.40;95018.00;;;;8426189;28;20560;-71
2021/12/09 06:43:44;;;;;;;99.67;23.80;;;;;2.40;95018.00;;;;8426830;28;20220;-69
2021/12/09 06:48:21;;;;;;;90.00;22.70;;;;;2.40;95013.00;;;;8425587;28;20560;-69
2021/12/09 06:52:58;;;;;;;94.13;24.13;;;;;2.40;95005.00;;;;8426129;28;20228;-70
2021/12/09 06:57:36;;;;;;;88.50;22.57;;;;;2.40;95004.00;;;;8426490;28;20212;-69
2021/12/09 07:02:10;;;;;;;88.17;22.47;;;;;2.50;94996.00;;;;8426441;28;20249;-69
2021/12/09 07:11:50;;;;;;;76.30;22.17;;;;;2.50;94990.00;;;;8426482;28;20260;-70
2021/12/09 07:16:21;;;;;;;95.23;23.50;;;;;2.50;94973.00;;;;8426518;28;20270;-70
2021/12/09 07:20:59;;;;;;;92.87;21.87;;;;;2.60;94965.00;;;;8425843;28;20281;-70
2021/12/09 07:25:33;;;;;;;101.77;22.17;;;;;2.60;94954.00;;;;8425904;28;20266;-70
2021/12/09 07:30:10;;;;;;;87.50;21.03;;;;;2.70;94955.00;;;;8432803;28;20249;-69
2021/12/09 07:34:47;;;;;;;79.97;22.50;;;;;2.60;94959.00;;;;8431889;28;20321;-69
2021/12/09 07:39:26;;;;;;;75.43;22.13;;;;;2.60;94958.00;;;;8430710;28;20270;-70
2021/12/09 07:44:02;;;;;;;72.77;22.03;;;;;2.60;94975.00;;;;8432310;28;20213;-71
2021/12/09 07:48:35;;;;;;;81.30;20.90;;;;;2.60;94983.00;;;;8431536;28;20247;-70
2021/12/09 07:53:09;;;;;;;87.57;23.73;;;;;2.70;94982.00;;;;8430312;28;20216;-70
2021/12/09 07:57:47;;;;;;;901.43;406.40;;;;;2.70;94976.00;;;;8431379;28;20500;-70
2021/12/09 08:02:24;;;;;;;100.60;31.13;;;;;2.70;94985.00;;;;8430789;28;20643;-70
2021/12/09 08:06:28;;;;;;;144.20;56.03;;;;;2.80;94990.00;;;;8430178;28;20225;-70
2021/12/09 08:10:31;;;;;;;450.47;161.77;;;;;2.80;94992.00;;;;8430760;28;20218;-70
2021/12/09 08:14:36;;;;;;;1999.90;815.07;;;;;2.90;94996.00;;;;8430681;28;20237;-70
2021/12/09 08:19:14;;;;;;;1627.10;655.37;;;;;2.90;94997.00;;;;8430137;28;20619;-70
2021/12/09 08:23:48;;;;;;;205.20;68.47;;;;;2.90;95000.00;;;;8429622;28;20224;-70
2021/12/09 08:27:52;;;;;;;113.83;37.23;;;;;3.00;94992.00;;;;8429982;28;20242;-70
2021/12/09 08:32:26;;;;;;;242.67;76.70;;;;;3.00;95009.00;;;;8429429;28;20238;-70
2021/12/09 08:37:04;;;;;;;379.43;120.27;;;;;3.00;95014.00;;;;8429456;28;20239;-70
2021/12/09 08:41:08;;;;;;;245.87;80.97;;;;;3.10;95025.00;;;;8430022;28;20315;-71
2021/12/09 08:45:42;;;;;;;463.13;145.87;;;;;3.20;95016.00;;;;8429303;28;20217;-71
2021/12/09 08:50:20;;;;;;;329.43;97.33;;;;;3.20;95020.00;;;;8429095;28;20657;-71
2021/12/09 08:54:59;;;;;;;154.43;45.60;;;;;3.30;95015.00;;;;8429749;28;20270;-71
2021/12/09 08:59:32;;;;;;;55.93;21.07;;;;;3.30;95018.00;;;;8428854;28;20221;-71
2021/12/09 09:04:09;;;;;;;65.60;23.97;;;;;3.40;95025.00;;;;8428411;28;20228;-71
2021/12/09 09:08:46;;;;;;;67.83;24.60;;;;;3.40;95045.00;;;;8428783;28;20224;-71
2021/12/09 09:12:51;;;;;;;40.70;14.93;;;;;3.40;95043.00;;;;8428420;28;20220;-71
2021/12/09 09:17:25;;;;;;;42.03;15.53;;;;;3.40;95051.00;;;;8428681;28;20222;-71
2021/12/09 09:22:02;;;;;;;38.60;14.20;;;;;3.40;95061.00;;;;8427721;28;20263;-72
2021/12/09 09:26:38;;;;;;;41.07;13.17;;;;;3.50;95059.00;;;;8428946;28;20232;-72
2021/12/09 09:31:19;;;;;;;31.87;10.80;;;;;3.50;95055.00;;;;8426840;28;20225;-72
2021/12/09 09:35:53;;;;;;;31.60;11.10;;;;;3.50;95057.00;;;;8427515;28;20229;-72
2021/12/09 09:40:38;;;;;;;26.43;9.60;;;;;3.50;95065.00;;;;8428019;28;20232;-72
2021/12/09 09:45:03;;;;;;;25.80;9.17;;;;;3.60;95073.00;;;;8428075;28;20215;-73
2021/12/09 09:49:41;;;;;;;29.90;10.13;;;;;3.70;95079.00;;;;8426691;28;20224;-73
2021/12/09 09:54:15;;;;;;;29.13;10.60;;;;;3.70;95084.00;;;;8427596;28;20248;-73
2021/12/09 09:58:53;;;;;;;30.10;10.77;;;;;3.80;95076.00;;;;8427912;28;20314;-72
2021/12/09 10:03:34;;;;;;;30.93;10.03;;;;;3.80;95072.00;;;;8426227;28;20253;-72
2021/12/09 10:07:39;;;;;;;24.50;9.10;;;;;3.80;95065.00;;;;8426765;28;20252;-72
2021/12/09 10:11:43;;;;;;;21.97;8.47;;;;;3.80;95066.00;;;;8427260;28;20221;-73
2021/12/09 10:16:18;;;;;;;25.83;8.77;;;;;3.90;95062.00;;;;8426749;28;20229;-72
2021/12/09 10:20:54;;;;;;;17.93;8.47;;;;;3.90;95058.00;;;;8426773;28;20219;-73
2021/12/09 10:25:00;;;;;;;16.37;6.70;;;;;3.90;95060.00;;;;8427305;28;20673;-74
2021/12/09 10:29:07;;;;;;;16.27;5.97;;;;;3.90;95065.00;;;;8426525;28;20225;-75
2021/12/09 10:33:59;;;;;;;13.67;6.20;;;;;3.90;95063.00;;;;8427017;28;20284;-74
2021/12/09 10:38:05;;;;;;;20.80;6.30;;;;;3.90;95069.00;;;;8403726;28;20229;-74
2021/12/09 10:42:13;;;;;;;17.60;6.63;;;;;3.90;95074.00;;;;8426595;28;20589;-74
2021/12/09 10:46:48;;;;;;;19.60;6.70;;;;;3.90;95071.00;;;;8426986;28;20220;-74
2021/12/09 10:51:12;;;;;;;13.97;6.60;;;;;4.00;95064.00;;;;8426932;28;20696;-73
2021/12/09 10:55:30;;;;;;;13.63;6.57;;;;;4.00;95069.00;;;;8425879;28;20672;-73
2021/12/09 11:00:04;;;;;;;13.70;6.23;;;;;4.10;95075.00;;;;8427517;28;20679;-70
2021/12/09 11:04:56;;;;;;;169.93;13.93;;;;;4.10;95087.00;;;;8433306;28;20233;-70
2021/12/09 11:09:01;;;;;;;11.47;5.93;;;;;4.20;95090.00;;;;8432710;28;20233;-70
2021/12/09 11:13:39;;;;;;;13.30;6.23;;;;;4.20;95064.00;;;;8432114;28;20258;-71
2021/12/09 11:17:46;;;;;;;8.90;4.60;;;;;4.20;95072.00;;;;8432393;28;20247;-71
2021/12/09 11:22:30;;;;;;;9.60;5.07;;;;;4.20;95066.00;;;;8432498;28;20218;-72
2021/12/09 11:26:57;;;;;;;8.50;4.80;;;;;4.10;95071.00;;;;8431926;28;20629;-72
2021/12/09 11:31:34;;;;;;;7.53;3.77;;;;;4.10;95072.00;;;;8432659;28;20578;-72
2021/12/09 11:36:14;;;;;;;6.10;4.23;;;;;4.00;95068.00;;;;8432063;28;20257;-72
2021/12/09 11:40:48;;;;;;;3.97;3.03;;;;;4.00;95064.00;;;;8431103;28;20217;-72
2021/12/09 11:45:19;;;;;;;10.80;3.90;;;;;3.90;95078.00;;;;8430852;28;20284;-72
2021/12/09 11:49:54;;;;;;;8.50;3.60;;;;;4.00;95073.00;;;;8430877;28;20246;-72
2021/12/09 11:54:30;;;;;;;4.50;3.10;;;;;4.00;95066.00;;;;8430230;28;20343;-73
2021/12/09 12:13:46;;;;;;;4.60;3.40;;;;;4.10;95080.00;;;;8429030;28;20218;-73
2021/12/09 12:18:33;;;;;;;6.93;3.70;;;;;4.00;95077.00;;;;8429625;28;20236;-72
2021/12/09 12:27:48;;;;;;;6.97;3.90;;;;;4.00;95069.00;;;;8327668;28;20235;-72
2021/12/09 12:37:10;;;;;;;12.23;4.57;;;;;4.00;95070.00;;;;8429764;28;20657;-71
2021/12/09 12:41:50;;;;;;;9.20;4.50;;;;;4.10;95073.00;;;;8430928;28;20646;-71
2021/12/09 12:46:33;;;;;;;10.50;4.60;;;;;4.20;95070.00;;;;8429209;28;20242;-72
2021/12/09 12:51:07;;;;;;;10.50;4.33;;;;;4.30;95095.00;;;;8428801;28;20243;-72
2021/12/09 12:56:02;;;;;;;9.30;4.53;;;;;4.40;95096.00;;;;8429240;28;20631;-72
2021/12/09 13:00:21;;;;;;;8.73;4.40;;;;;4.40;95098.00;;;;8428666;28;20232;-72
2021/12/09 13:05:01;;;;;;;10.77;5.27;;;;;4.40;95092.00;;;;8428398;28;20262;-72
2021/12/09 13:09:35;;;;;;;9.97;5.03;;;;;4.40;95096.00;;;;8428599;28;20222;-72
2021/12/09 13:14:11;;;;;;;10.93;5.30;;;;;4.30;95091.00;;;;8429380;28;20276;-72
2021/12/09 13:18:58;;;;;;;11.37;5.57;;;;;4.20;95096.00;;;;8428780;28;20616;-72
2021/12/09 13:23:25;;;;;;;10.07;5.37;;;;;4.20;95095.00;;;;8427626;28;20218;-72
2021/12/09 13:47:27;;;;;;;22.80;6.10;;;;;3.90;95104.00;;;;8427880;28;20223;-75
2021/12/09 13:52:01;;;;;;;14.10;7.07;;;;;3.90;95109.00;;;;8427277;28;20688;-74
2021/12/09 13:56:24;;;;;;;16.43;6.70;;;;;3.90;95110.00;;;;8427498;28;20647;-74
2021/12/09 14:01:01;;;;;;;19.87;7.00;;;;;3.90;95114.00;;;;8426394;28;20222;-74
2021/12/09 14:05:06;;;;;;;21.20;7.63;;;;;3.90;95099.00;;;;8427513;28;20289;-74
2021/12/09 14:09:41;;;;;;;13.83;6.73;;;;;3.90;95112.00;;;;8426932;28;20250;-74
2021/12/09 14:14:24;;;;;;;23.30;7.83;;;;;3.90;95100.00;;;;8427260;28;20245;-74
2021/12/09 14:19:58;;;;;;;17.23;7.77;;;;;3.90;95113.00;;;;8427385;28;20233;-74
2021/12/09 14:24:09;;;;;;;25.67;9.07;;;;;3.90;95124.00;;;;8424054;28;20529;-75
2021/12/09 14:28:43;;;;;;;16.93;6.93;;;;;3.90;95135.00;;;;8424913;28;20228;-74
2021/12/09 14:33:21;;;;;;;22.70;7.20;;;;;3.80;95162.00;;;;8426273;28;20616;-74
2021/12/09 14:37:56;;;;;;;20.17;8.17;;;;;3.80;95192.00;;;;8432533;28;20221;-74
2021/12/09 14:42:09;;;;;;;28.30;8.57;;;;;3.80;95189.00;;;;8431992;28;20628;-73
2021/12/09 14:46:42;;;;;;;19.23;8.33;;;;;3.90;95177.00;;;;8432740;28;20568;-75
2021/12/09 14:51:19;;;;;;;17.13;8.00;;;;;3.80;95186.00;;;;8433784;28;20220;-75
2021/12/09 14:55:53;;;;;;;18.53;8.63;;;;;3.80;95188.00;;;;8432768;28;20252;-73
2021/12/09 15:00:35;;;;;;;26.13;8.87;;;;;3.80;95184.00;;;;8432937;28;20219;-81
2021/12/09 15:05:16;;;;;;;18.30;8.37;;;;;3.70;95188.00;;;;8432061;28;20230;-79
2021/12/09 15:09:22;;;;;;;19.43;9.03;;;;;3.70;95198.00;;;;8433017;28;20213;-82
2021/12/09 15:13:27;;;;;;;32.33;10.07;;;;;3.70;95186.00;;;;8431704;28;20222;-79
2021/12/09 15:18:02;;;;;;;39.80;14.43;;;;;3.70;95185.00;;;;8432407;28;20661;-80
2021/12/09 15:22:10;;;;;;;25.93;9.63;;;;;3.70;95181.00;;;;8432112;28;20241;-82
2021/12/09 15:26:51;;;;;;;66.50;32.47;;;;;3.70;95181.00;;;;8432141;28;20658;-81
2021/12/09 15:31:20;;;;;;;31.63;14.60;;;;;3.70;95194.00;;;;8431792;28;20235;-82
2021/12/09 15:35:26;;;;;;;31.53;16.97;;;;;3.70;95190.00;;;;8432121;28;20218;-82
2021/12/09 15:39:31;;;;;;;46.77;28.63;;;;;3.70;95188.00;;;;8435188;28;20229;-84
2021/12/09 15:44:13;;;;;;;31.80;12.47;;;;;3.70;95191.00;;;;8454024;28;20233;-84
2021/12/09 15:48:42;;;;;;;48.80;22.63;;;;;3.70;95189.00;;;;8431515;28;20218;-87
2021/12/09 15:53:19;;;;;;;36.53;12.13;;;;;3.70;95198.00;;;;8431718;28;20260;-86
2021/12/09 15:58:00;;;;;;;41.87;17.70;;;;;3.70;95194.00;;;;8430891;28;20221;-83
2021/12/09 16:02:36;;;;;;;501.17;248.13;;;;;3.70;95186.00;;;;8431058;28;20239;-85
2021/12/09 16:06:43;;;;;;;25.40;10.10;;;;;3.70;95189.00;;;;8430631;28;20262;-84
2021/12/09 16:10:48;;;;;;;45.63;17.83;;;;;3.70;95197.00;;;;8431227;28;20690;-83
2021/12/09 16:14:54;;;;;;;24.03;9.97;;;;;3.60;95203.00;;;;8430508;28;20325;-82
2021/12/09 16:19:34;;;;;;;46.27;18.00;;;;;3.60;95193.00;;;;8431200;28;20254;-81
2021/12/09 16:24:04;;;;;;;77.00;40.47;;;;;3.60;95189.00;;;;8430223;28;20225;-81
2021/12/09 16:28:41;;;;;;;28.53;9.97;;;;;3.60;95197.00;;;;8430133;28;20526;-80
2021/12/09 16:33:19;;;;;;;26.43;9.80;;;;;3.50;95198.00;;;;8430356;28;20304;-79
2021/12/09 16:37:53;;;;;;;23.17;10.90;;;;;3.50;95215.00;;;;8430230;28;20226;-79
2021/12/09 16:42:32;;;;;;;27.47;10.60;;;;;3.50;95224.00;;;;8429469;28;20254;-79
2021/12/09 16:47:03;;;;;;;22.07;8.50;;;;;3.50;95219.00;;;;8429600;28;20256;-78
2021/12/09 16:51:37;;;;;;;17.57;8.47;;;;;3.50;95215.00;;;;8429811;28;20236;-77
2021/12/09 16:56:27;;;;;;;70.63;27.33;;;;;3.50;95215.00;;;;8429155;28;20261;-75
2021/12/09 17:00:51;;;;;;;24.37;8.73;;;;;3.50;95227.00;;;;8425556;28;20216;-75
2021/12/09 17:05:25;;;;;;;40.17;9.43;;;;;3.50;95229.00;;;;8428092;28;20225;-75
2021/12/09 17:10:01;;;;;;;16.07;7.10;;;;;3.50;95221.00;;;;8426473;28;20260;-75
2021/12/09 17:14:06;;;;;;;26.83;11.27;;;;;3.50;95216.00;;;;8428440;28;20225;-76
2021/12/09 17:18:12;;;;;;;15.23;6.70;;;;;3.50;95216.00;;;;8427919;28;20227;-75
2021/12/09 17:22:18;;;;;;;27.20;11.53;;;;;3.40;95215.00;;;;8429054;28;20214;-76
2021/12/09 17:26:58;;;;;;;22.40;9.67;;;;;3.40;95224.00;;;;8428057;28;20228;-76
2021/12/09 17:31:41;;;;;;;25.37;10.27;;;;;3.40;95211.00;;;;8428070;28;20226;-76
2021/12/09 17:36:10;;;;;;;22.00;9.67;;;;;3.40;95209.00;;;;8427677;28;20235;-79
2021/12/09 17:40:46;;;;;;;15.53;6.23;;;;;3.40;95215.00;;;;8428028;28;20270;-81
2021/12/09 17:45:21;;;;;;;24.17;8.63;;;;;3.30;95218.00;;;;8428155;28;20219;-78
2021/12/09 17:50:00;;;;;;;31.23;9.67;;;;;3.30;95225.00;;;;8427394;28;20225;-79
2021/12/09 17:54:04;;;;;;;23.73;8.90;;;;;3.20;95235.00;;;;8427634;28;20225;-79
2021/12/09 17:58:08;;;;;;;13.53;5.73;;;;;3.20;95235.00;;;;8428360;28;20333;-79
2021/12/09 18:02:42;;;;;;;14.50;6.73;;;;;3.10;95246.00;;;;8427093;28;20243;-79
2021/12/09 18:07:19;;;;;;;16.10;7.10;;;;;3.10;95247.00;;;;8427497;28;20248;-79
2021/12/09 18:11:27;;;;;;;17.83;6.87;;;;;3.10;95247.00;;;;8426516;28;20532;-80
2021/12/09 18:16:00;;;;;;;20.87;6.77;;;;;3.10;95254.00;;;;8427620;28;20228;-80
2021/12/09 18:20:35;;;;;;;24.20;12.97;;;;;3.10;95260.00;;;;8425941;28;20245;-81
2021/12/09 18:25:13;;;;;;;13.93;6.03;;;;;3.10;95257.00;;;;8425283;28;20256;-77
2021/12/09 18:29:47;;;;;;;13.17;5.03;;;;;3.00;95251.00;;;;8424683;28;20540;-77
2021/12/09 18:34:25;;;;;;;10.67;5.57;;;;;3.00;95260.00;;;;8427464;28;20227;-77
2021/12/09 18:39:03;;;;;;;17.87;5.97;;;;;3.10;95255.00;;;;8426039;28;20236;-77
2021/12/09 18:43:09;;;;;;;16.70;7.60;;;;;3.10;95263.00;;;;8426546;28;20283;-77
2021/12/09 18:47:43;;;;;;;18.87;7.93;;;;;3.10;95267.00;;;;8423008;28;20668;-77
2021/12/09 18:52:21;;;;;;;14.20;7.23;;;;;3.10;95265.00;;;;8426346;28;20224;-77
2021/12/09 18:56:57;;;;;;;23.13;9.87;;;;;3.00;95256.00;;;;8425842;28;20616;-78
2021/12/09 19:01:33;;;;;;;48.80;28.93;;;;;3.00;95254.00;;;;8426154;28;20226;-80
2021/12/09 19:06:08;;;;;;;24.03;7.40;;;;;3.10;95255.00;;;;8426737;28;20270;-80
2021/12/09 19:10:46;;;;;;;15.67;7.90;;;;;3.10;95245.00;;;;8426623;28;20237;-80
2021/12/09 19:14:52;;;;;;;24.40;7.87;;;;;3.10;95253.00;;;;8425126;28;20256;-77
2021/12/09 19:19:28;;;;;;;20.77;8.50;;;;;3.10;95257.00;;;;8426631;28;20225;-75
2021/12/09 19:24:02;;;;;;;19.17;6.90;;;;;3.10;95259.00;;;;8431250;28;20257;-75
2021/12/09 19:28:38;;;;;;;13.17;6.63;;;;;3.00;95259.00;;;;8432926;28;20661;-74
2021/12/09 19:33:19;;;;;;;19.57;6.03;;;;;3.00;95258.00;;;;8431958;28;20220;-73
2021/12/09 19:37:23;;;;;;;24.90;7.50;;;;;3.10;95254.00;;;;8431883;28;20289;-73
2021/12/09 19:41:56;;;;;;;14.23;7.80;;;;;3.00;95244.00;;;;8432099;28;20267;-73
2021/12/09 19:46:33;;;;;;;24.53;12.77;;;;;2.90;95234.00;;;;8431713;28;20220;-73
2021/12/09 19:51:12;;;;;;;18.67;8.60;;;;;2.90;95234.00;;;;8428996;28;20560;-73
2021/12/09 19:55:17;;;;;;;23.53;10.40;;;;;2.90;95226.00;;;;8431168;28;20681;-73
2021/12/09 19:59:20;;;;;;;19.57;7.27;;;;;3.00;95220.00;;;;8431379;28;20218;-78
2021/12/09 20:03:57;;;;;;;18.07;7.13;;;;;3.00;95210.00;;;;8431026;28;20278;-78
2021/12/09 20:08:37;;;;;;;25.13;7.37;;;;;3.00;95218.00;;;;8431048;28;20302;-77
2021/12/09 20:12:41;;;;;;;18.80;6.60;;;;;3.00;95210.00;;;;8431024;28;20272;-76
2021/12/09 20:17:15;;;;;;;27.90;10.47;;;;;3.00;95221.00;;;;8430768;28;20247;-77
2021/12/09 20:21:52;;;;;;;19.00;8.53;;;;;3.00;95222.00;;;;8430499;28;20212;-77
2021/12/09 20:26:31;;;;;;;24.23;8.83;;;;;2.90;95215.00;;;;8429826;28;20222;-77
2021/12/09 20:31:05;;;;;;;18.73;8.03;;;;;2.90;95219.00;;;;8430523;28;20252;-76
2021/12/09 20:35:42;;;;;;;47.17;12.67;;;;;2.90;95212.00;;;;8429795;28;20220;-76
2021/12/09 20:40:19;;;;;;;31.17;10.87;;;;;3.00;95209.00;;;;8430034;28;20226;-76
2021/12/09 20:44:56;;;;;;;18.47;8.17;;;;;3.00;95206.00;;;;8429647;28;20230;-76
2021/12/09 20:49:34;;;;;;;22.03;6.13;;;;;3.00;95192.00;;;;8429387;28;20225;-76
2021/12/09 20:54:11;;;;;;;12.23;6.20;;;;;3.00;95190.00;;;;8430167;28;20611;-76
2021/12/09 20:58:49;;;;;;;16.17;6.20;;;;;3.00;95184.00;;;;8429280;28;20246;-75
2021/12/09 21:03:23;;;;;;;13.13;6.63;;;;;3.00;95178.00;;;;8428948;28;20233;-76
2021/12/09 21:08:01;;;;;;;33.70;8.17;;;;;3.00;95182.00;;;;8427981;28;20221;-76
2021/12/09 21:12:05;;;;;;;22.53;7.30;;;;;3.00;95176.00;;;;8426952;28;20221;-77
2021/12/09 21:16:10;;;;;;;19.70;8.33;;;;;3.10;95180.00;;;;8427327;28;20236;-76
2021/12/09 21:20:49;;;;;;;20.43;7.90;;;;;3.10;95178.00;;;;8428125;28;20216;-76
2021/12/09 21:25:25;;;;;;;17.90;7.17;;;;;3.10;95164.00;;;;8429019;28;20225;-76
2021/12/09 21:29:28;;;;;;;13.93;6.20;;;;;3.00;95157.00;;;;8428403;28;20223;-76
2021/12/09 21:33:35;;;;;;;22.43;7.60;;;;;3.00;95151.00;;;;8428182;28;20240;-76
2021/12/09 21:38:06;;;;;;;22.83;7.37;;;;;2.90;95143.00;;;;8428096;28;20274;-75
2021/12/09 21:42:12;;;;;;;12.30;5.63;;;;;2.80;95138.00;;;;8428784;28;20555;-76
2021/12/09 21:46:47;;;;;;;16.40;7.17;;;;;2.80;95133.00;;;;8426835;28;20223;-75
2021/12/09 21:50:51;;;;;;;14.80;6.50;;;;;2.80;95136.00;;;;8428170;28;20640;-76
2021/12/09 21:54:54;;;;;;;27.60;7.53;;;;;2.80;95135.00;;;;8428767;28;20239;-76
2021/12/09 21:58:59;;;;;;;14.97;6.80;;;;;2.90;95131.00;;;;8427965;28;20263;-75
2021/12/09 22:03:03;;;;;;;13.00;6.03;;;;;2.90;95137.00;;;;8427132;28;20713;-76
2021/12/09 22:07:06;;;;;;;21.53;6.63;;;;;2.80;95128.00;;;;8428078;28;20216;-76
2021/12/09 22:11:09;;;;;;;20.43;7.57;;;;;2.90;95121.00;;;;8426542;28;20218;-76
2021/12/09 22:15:15;;;;;;;23.20;7.17;;;;;3.00;95122.00;;;;8426453;28;20242;-76
2021/12/09 22:19:21;;;;;;;18.97;6.10;;;;;3.00;95118.00;;;;8427330;28;20275;-76
2021/12/09 22:23:55;;;;;;;16.80;6.43;;;;;3.00;95129.00;;;;8427355;28;20216;-76
2021/12/09 22:27:58;;;;;;;17.03;6.67;;;;;3.00;95118.00;;;;8427729;28;20544;-76
2021/12/09 22:32:37;;;;;;;19.13;7.93;;;;;3.00;95109.00;;;;8427187;28;20655;-76
2021/12/09 22:36:40;;;;;;;21.30;8.83;;;;;3.00;95105.00;;;;8427265;28;20230;-75
2021/12/09 22:40:44;;;;;;;22.60;7.07;;;;;3.10;95106.00;;;;8427087;28;20221;-76